Metar z połowy godziny Komunikat METAR ze strony awiacja.imgw.pl Metar G00 EPSC METAR EPSC 230130Z 12005KT 9999 FEW002 13/12 Q1007 =